Time;durP1;ratioP1;P1;durP2;ratioP2;P2;SDS_P1;SDS_P2;PMS_P1;PMS_P2;Temp;Humidity;BMP_temperature;BMP_pressure;BME280_temperature;BME280_humidity;BME280_pressure;Samples;Min_cycle;Max_cycle;Signal;HPM_P1;HPM_P2
2021/06/04 00:01:44;;;;;;;11.27;5.70;;;19.70;99.90;;;;;;5050347;28;20045;-63
2021/06/04 00:04:11;;;;;;;10.60;6.07;;;19.70;99.90;;;;;;5049835;28;20053;-63
2021/06/04 00:06:38;;;;;;;8.60;5.75;;;19.60;99.90;;;;;;5046815;28;20106;-63
2021/06/04 09:07:53;;;;;;;8.07;3.90;;;22.40;99.90;;;;;;4992833;28;20046;-94
2021/06/04 09:10:33;;;;;;;7.05;4.45;;;22.70;99.90;;;;;;4993002;28;20061;-93
2021/06/04 09:13:08;;;;;;;9.13;3.95;;;22.90;99.90;;;;;;4992024;28;21593;-92
2021/06/04 09:15:40;;;;;;;8.70;4.28;;;23.20;99.90;;;;;;4987042;28;20340;-90
2021/06/04 09:18:11;;;;;;;8.05;4.40;;;23.70;99.90;;;;;;4986217;28;20725;-91
2021/06/04 09:20:46;;;;;;;8.70;3.28;;;24.00;99.90;;;;;;4983429;28;20068;-92
2021/06/04 09:23:17;;;;;;;8.27;3.80;;;24.50;99.90;;;;;;4991385;28;20137;-93
2021/06/04 09:25:43;;;;;;;6.45;3.17;;;24.80;99.90;;;;;;4999925;28;20398;-91
2021/06/04 09:28:32;;;;;;;9.07;3.70;;;25.00;99.90;;;;;;5005667;28;20050;-91
2021/06/04 09:31:00;;;;;;;7.30;3.35;;;25.80;99.90;;;;;;5005929;28;20763;-91
2021/06/04 09:33:33;;;;;;;10.90;3.85;;;26.50;99.90;;;;;;5004983;28;20149;-91
2021/06/04 09:36:09;;;;;;;7.80;3.55;;;26.70;99.90;;;;;;5006510;28;20116;-91
2021/06/04 09:38:42;;;;;;;7.57;3.67;;;27.40;99.90;;;;;;5010168;28;20234;-92
2021/06/04 09:41:21;;;;;;;9.07;3.70;;;28.00;99.90;;;;;;5010048;28;20132;-91
2021/06/04 09:43:49;;;;;;;9.93;3.90;;;27.90;99.90;;;;;;5010198;28;20057;-92
2021/06/04 09:46:27;;;;;;;6.13;3.60;;;27.90;99.90;;;;;;5009967;28;20111;-90
2021/06/04 09:48:56;;;;;;;8.75;3.97;;;27.90;99.90;;;;;;5010498;28;20057;-91
2021/06/04 09:51:26;;;;;;;8.18;3.72;;;27.90;99.90;;;;;;5009895;28;20060;-91
2021/06/04 09:53:55;;;;;;;8.60;3.45;;;28.60;99.90;;;;;;5009412;28;20792;-91
2021/06/04 09:56:29;;;;;;;7.45;3.42;;;28.80;99.90;;;;;;5008672;28;20046;-92
2021/06/04 09:58:57;;;;;;;5.47;3.75;;;29.00;99.90;;;;;;4996367;28;20119;-91
2021/06/04 10:01:26;;;;;;;8.38;3.70;;;28.60;99.90;;;;;;4989319;28;20058;-91
2021/06/04 10:03:58;;;;;;;7.32;3.40;;;28.30;99.90;;;;;;5005662;28;20136;-91
2021/06/04 10:06:49;;;;;;;6.70;3.30;;;28.90;99.90;;;;;;5008889;28;20064;-91
2021/06/04 10:09:41;;;;;;;7.93;3.65;;;28.40;99.90;;;;;;4991924;28;20054;-91
2021/06/04 10:12:15;;;;;;;9.23;3.30;;;28.60;99.90;;;;;;5002912;28;20060;-91
2021/06/04 10:14:49;;;;;;;6.18;2.90;;;28.30;99.90;;;;;;5008760;28;20073;-92
2021/06/04 10:17:43;;;;;;;6.43;3.40;;;28.30;99.90;;;;;;5008371;28;20050;-91
2021/06/04 10:20:39;;;;;;;8.43;3.35;;;28.60;99.90;;;;;;5008147;28;20049;-91
2021/06/04 10:23:10;;;;;;;7.07;2.78;;;28.80;99.90;;;;;;5006358;28;20052;-91
2021/06/04 10:25:49;;;;;;;6.82;3.35;;;28.80;99.90;;;;;;5008634;28;20046;-91
2021/06/04 10:28:29;;;;;;;8.35;4.05;;;29.40;99.90;;;;;;5004777;28;20422;-91
2021/06/04 10:31:01;;;;;;;4.53;2.80;;;29.80;99.90;;;;;;5008389;28;20050;-91
2021/06/04 10:33:37;;;;;;;5.43;3.15;;;29.70;98.90;;;;;;5008283;28;20084;-91
2021/06/04 10:36:06;;;;;;;7.15;3.00;;;29.60;99.90;;;;;;5004874;28;20058;-92
2021/06/04 10:38:37;;;;;;;5.68;3.05;;;29.10;99.90;;;;;;5008017;28;20060;-92
2021/06/04 10:41:10;;;;;;;7.38;3.05;;;29.30;99.20;;;;;;5005175;28;20054;-92
2021/06/04 10:44:01;;;;;;;4.57;2.78;;;29.20;97.10;;;;;;5007737;28;20490;-91
2021/06/04 10:46:36;;;;;;;5.90;3.03;;;29.70;97.00;;;;;;5003530;28;20062;-91
2021/06/04 10:49:21;;;;;;;4.30;2.78;;;29.80;95.90;;;;;;5006256;28;20068;-92
2021/06/04 10:51:56;;;;;;;8.18;3.15;;;29.80;94.60;;;;;;5005660;28;20061;-91
2021/06/04 10:54:31;;;;;;;7.72;3.10;;;30.00;94.80;;;;;;5003509;28;20048;-93
2021/06/04 10:57:04;;;;;;;6.43;2.67;;;30.10;93.00;;;;;;5004064;28;20053;-92
2021/06/04 10:59:48;;;;;;;7.93;2.70;;;30.70;93.20;;;;;;5007599;28;20080;-91
2021/06/04 11:02:26;;;;;;;4.57;2.58;;;31.30;93.10;;;;;;5006211;28;20360;-92
2021/06/04 11:05:13;;;;;;;3.72;2.67;;;32.50;90.90;;;;;;5007906;28;20132;-92
2021/06/04 11:07:49;;;;;;;10.00;2.95;;;32.60;89.60;;;;;;5002951;28;20145;-93
2021/06/04 11:10:22;;;;;;;4.40;2.85;;;32.90;86.10;;;;;;5004847;28;20064;-92
2021/06/04 11:13:04;;;;;;;4.85;2.60;;;33.30;83.60;;;;;;5003484;28;20104;-89
2021/06/04 11:15:41;;;;;;;3.92;2.60;;;34.00;79.70;;;;;;5003162;28;20555;-89
2021/06/04 11:18:13;;;;;;;6.80;2.65;;;34.00;75.30;;;;;;4998715;28;20057;-91
2021/06/04 11:20:43;;;;;;;4.75;2.58;;;33.30;74.90;;;;;;5000582;28;20054;-91
2021/06/04 11:23:15;;;;;;;6.18;2.75;;;32.70;74.80;;;;;;5003255;28;20058;-91
2021/06/04 11:25:51;;;;;;;4.93;2.47;;;33.30;76.30;;;;;;5006340;28;20486;-92
2021/06/04 11:28:29;;;;;;;5.90;2.63;;;33.40;74.70;;;;;;5007047;28;20449;-92
2021/06/04 11:30:59;;;;;;;5.20;2.42;;;33.60;73.90;;;;;;5004664;28;20419;-92
2021/06/04 11:33:28;;;;;;;3.60;2.40;;;34.40;73.80;;;;;;5004764;28;20103;-92
2021/06/04 11:36:00;;;;;;;5.18;2.63;;;34.60;69.10;;;;;;5008015;28;20065;-91
2021/06/04 11:38:34;;;;;;;3.03;2.35;;;34.30;67.70;;;;;;5006738;28;20081;-92
2021/06/04 11:41:10;;;;;;;5.60;2.40;;;33.60;68.00;;;;;;5006126;28;20050;-92
2021/06/04 11:43:41;;;;;;;6.93;2.78;;;34.30;70.90;;;;;;4999381;28;20081;-92
2021/06/04 11:46:17;;;;;;;5.93;2.58;;;34.70;68.20;;;;;;5002139;28;20084;-92
2021/06/04 11:49:01;;;;;;;4.85;2.30;;;34.90;68.80;;;;;;5004399;28;20495;-92
2021/06/04 11:51:47;;;;;;;4.55;2.65;;;35.10;66.40;;;;;;5006542;28;20516;-91
2021/06/04 11:54:21;;;;;;;4.32;2.42;;;35.30;66.60;;;;;;5006208;28;20049;-91
2021/06/04 11:56:54;;;;;;;3.30;2.50;;;35.60;63.90;;;;;;5007251;28;20052;-91
2021/06/04 11:59:54;;;;;;;5.95;2.75;;;35.60;63.40;;;;;;5005911;28;20049;-91
2021/06/04 12:02:53;;;;;;;5.60;2.55;;;36.30;64.80;;;;;;4982642;28;20146;-91
2021/06/04 12:05:38;;;;;;;5.70;2.25;;;36.70;61.10;;;;;;4927572;29;20056;-91
2021/06/04 12:08:43;;;;;;;3.47;2.30;;;36.00;61.50;;;;;;4990799;28;20057;-91
2021/06/04 12:11:32;;;;;;;4.90;2.53;;;35.20;60.90;;;;;;5007738;28;20234;-91
2021/06/04 12:14:25;;;;;;;6.28;2.38;;;34.90;61.70;;;;;;5007622;28;20042;-90
2021/06/04 12:17:34;;;;;;;4.07;2.40;;;35.00;61.80;;;;;;4960868;28;20144;-91
2021/06/04 12:20:36;;;;;;;5.63;2.70;;;34.30;64.00;;;;;;4973195;28;20050;-92
2021/06/04 12:23:08;;;;;;;3.22;2.17;;;33.90;64.40;;;;;;4989145;28;20062;-93
2021/06/04 12:25:57;;;;;;;4.72;2.55;;;34.10;61.70;;;;;;5004816;28;20061;-90
2021/06/04 12:28:36;;;;;;;4.43;2.30;;;34.50;61.30;;;;;;5010401;28;20065;-90
2021/06/04 12:31:09;;;;;;;6.03;2.10;;;34.50;59.80;;;;;;5008739;28;20058;-91
2021/06/04 12:33:54;;;;;;;4.32;2.58;;;34.00;60.50;;;;;;5002689;28;20054;-92
2021/06/04 12:36:54;;;;;;;4.03;2.20;;;33.80;61.50;;;;;;5003023;28;20057;-91
2021/06/04 12:39:54;;;;;;;7.05;2.15;;;34.30;61.90;;;;;;5004412;28;20144;-92
2021/06/04 12:42:34;;;;;;;5.38;2.33;;;34.50;61.10;;;;;;5005292;28;20053;-92
2021/06/04 12:45:08;;;;;;;4.25;2.20;;;34.60;60.50;;;;;;5012620;28;20439;-90
2021/06/04 12:47:43;;;;;;;4.00;2.15;;;35.10;59.40;;;;;;5016920;28;20078;-92
2021/06/04 12:50:16;;;;;;;8.70;2.30;;;35.00;59.20;;;;;;5016757;28;20061;-89
2021/06/04 12:52:43;;;;;;;6.10;2.22;;;35.70;59.80;;;;;;5009645;28;20085;-91
2021/06/04 12:55:22;;;;;;;5.15;2.17;;;36.50;58.40;;;;;;5012075;28;20064;-90
2021/06/04 12:57:50;;;;;;;5.97;2.03;;;36.40;56.60;;;;;;5011803;28;20152;-91
2021/06/04 13:00:25;;;;;;;3.63;2.20;;;35.10;57.00;;;;;;5013896;28;20082;-91
2021/06/04 13:02:55;;;;;;;4.15;2.70;;;34.90;58.00;;;;;;5011500;28;20138;-93
2021/06/04 13:05:24;;;;;;;6.65;2.05;;;35.50;57.60;;;;;;5006596;28;20421;-92
2021/06/04 13:07:52;;;;;;;4.53;2.33;;;35.40;56.70;;;;;;5005339;28;20184;-89
2021/06/04 13:10:24;;;;;;;3.78;2.17;;;35.00;55.90;;;;;;5006788;28;20498;-89
2021/06/04 13:12:55;;;;;;;6.25;2.45;;;35.20;57.30;;;;;;5008849;28;20085;-89
2021/06/04 13:15:26;;;;;;;3.70;2.28;;;34.90;56.40;;;;;;5011020;28;20099;-91
2021/06/04 13:17:58;;;;;;;4.13;2.30;;;35.10;57.30;;;;;;5010575;28;20058;-92
2021/06/04 13:20:28;;;;;;;4.03;2.13;;;35.40;57.40;;;;;;5009740;28;20054;-94
2021/06/04 13:23:13;;;;;;;6.40;2.60;;;35.20;56.40;;;;;;5007587;28;20540;-92
2021/06/04 13:25:43;;;;;;;3.50;2.38;;;35.00;57.00;;;;;;5006711;28;20057;-91
2021/06/04 13:28:17;;;;;;;4.22;2.20;;;34.70;57.00;;;;;;5009493;28;20064;-92
2021/06/04 13:30:46;;;;;;;4.60;2.42;;;34.40;57.00;;;;;;5006344;28;20229;-90
2021/06/04 13:33:16;;;;;;;7.30;2.33;;;34.80;58.20;;;;;;5010183;28;20046;-89
2021/06/04 13:35:46;;;;;;;3.40;2.30;;;34.30;56.10;;;;;;5006657;28;20060;-89
2021/06/04 13:38:19;;;;;;;4.30;2.47;;;34.60;56.20;;;;;;5004713;28;20061;-89
2021/06/04 13:40:49;;;;;;;4.00;2.30;;;33.90;55.20;;;;;;5005213;28;20135;-90
2021/06/04 13:43:27;;;;;;;4.45;2.40;;;33.00;56.20;;;;;;5003711;28;20421;-89
2021/06/04 13:45:54;;;;;;;3.88;2.05;;;33.20;56.10;;;;;;5003175;28;20045;-89
2021/06/04 13:48:27;;;;;;;7.50;2.33;;;33.50;55.90;;;;;;4999972;28;20046;-90
2021/06/04 13:51:02;;;;;;;5.32;2.40;;;33.20;59.10;;;;;;4995339;28;20491;-89
2021/06/04 13:53:38;;;;;;;4.28;2.47;;;32.40;59.40;;;;;;5000224;28;20389;-90
2021/06/04 13:56:35;;;;;;;4.80;2.10;;;31.90;60.10;;;;;;5004913;28;20045;-89
2021/06/04 13:59:32;;;;;;;5.80;2.78;;;31.80;62.00;;;;;;5006187;28;20100;-91
2021/06/04 14:02:31;;;;;;;7.80;2.90;;;31.30;63.10;;;;;;5004048;28;20506;-89
2021/06/04 14:05:14;;;;;;;4.75;2.40;;;30.70;63.70;;;;;;5007469;28;20056;-91
2021/06/04 14:07:43;;;;;;;6.40;2.72;;;30.60;64.30;;;;;;4995182;28;20077;-92
2021/06/04 14:10:26;;;;;;;4.20;2.72;;;30.50;64.30;;;;;;5002194;28;20081;-92
2021/06/04 14:13:08;;;;;;;3.70;2.45;;;30.00;65.00;;;;;;4999870;28;20590;-91
2021/06/04 14:15:47;;;;;;;7.97;2.95;;;29.90;66.00;;;;;;4998917;28;20301;-92
2021/06/04 14:18:35;;;;;;;4.28;2.85;;;29.70;65.00;;;;;;5000176;28;20490;-92
2021/06/04 14:21:21;;;;;;;8.82;2.90;;;29.60;65.80;;;;;;5006969;28;20129;-92
2021/06/04 14:23:56;;;;;;;5.35;3.00;;;29.10;67.30;;;;;;4988260;28;20046;-92
2021/06/04 14:26:25;;;;;;;9.27;3.10;;;29.10;69.50;;;;;;5008744;28;20419;-93
2021/06/04 14:29:01;;;;;;;5.97;2.97;;;28.90;70.10;;;;;;5008845;28;20053;-92
2021/06/04 14:31:28;;;;;;;4.82;3.00;;;28.90;70.50;;;;;;5005141;28;20049;-93
2021/06/04 14:33:55;;;;;;;4.63;2.70;;;28.60;70.40;;;;;;5006941;28;20052;-90
2021/06/04 14:36:24;;;;;;;5.18;3.13;;;28.30;69.40;;;;;;5006852;28;20085;-90
2021/06/04 14:38:52;;;;;;;7.95;3.15;;;27.90;70.90;;;;;;5008542;28;20486;-91
2021/06/04 14:41:23;;;;;;;9.88;3.10;;;26.70;81.70;;;;;;5010642;28;20054;-90
2021/06/04 14:43:51;;;;;;;8.57;3.03;;;25.90;87.50;;;;;;5003505;28;20391;-90
2021/06/04 14:46:23;;;;;;;12.98;3.20;;;25.90;90.20;;;;;;5012784;28;20064;-90
2021/06/04 14:48:50;;;;;;;9.25;3.28;;;25.70;91.90;;;;;;5007349;28;20402;-89
2021/06/04 14:51:16;;;;;;;6.40;3.03;;;25.80;92.50;;;;;;5006908;28;20081;-90
2021/06/04 14:53:43;;;;;;;3.92;2.22;;;25.50;93.00;;;;;;5007150;28;20046;-91
2021/06/04 14:56:10;;;;;;;6.47;3.22;;;25.00;94.00;;;;;;5008135;28;20422;-90
2021/06/04 14:58:38;;;;;;;8.20;2.83;;;24.80;94.90;;;;;;5008824;28;20058;-92
2021/06/04 15:01:06;;;;;;;3.65;2.40;;;24.70;95.70;;;;;;5008214;28;20238;-90
2021/06/04 15:03:34;;;;;;;7.18;2.88;;;24.50;96.10;;;;;;5007801;28;20549;-90
2021/06/04 15:06:01;;;;;;;5.88;2.83;;;24.50;96.90;;;;;;5007885;28;20061;-90
2021/06/04 15:08:27;;;;;;;6.30;2.55;;;24.40;97.80;;;;;;5007013;28;20061;-91
2021/06/04 15:10:56;;;;;;;9.55;2.67;;;24.40;98.20;;;;;;5007143;28;20105;-92
2021/06/04 15:13:26;;;;;;;4.55;2.15;;;24.40;98.40;;;;;;5006694;28;20046;-91
2021/06/04 15:15:52;;;;;;;7.90;2.42;;;24.40;98.50;;;;;;5007506;28;20107;-93
2021/06/04 15:18:19;;;;;;;9.40;3.00;;;24.40;99.10;;;;;;5006933;28;20052;-91
2021/06/04 15:20:47;;;;;;;8.38;2.47;;;24.40;99.10;;;;;;5006305;28;20057;-90
2021/06/04 15:23:14;;;;;;;4.57;2.20;;;24.50;99.30;;;;;;5006538;28;20042;-91
2021/06/04 15:25:43;;;;;;;4.45;2.35;;;24.50;99.50;;;;;;5005889;28;20238;-94
2021/06/04 15:28:11;;;;;;;6.13;2.53;;;24.60;99.60;;;;;;5006024;28;20049;-92
2021/06/04 15:30:38;;;;;;;5.80;2.22;;;24.60;99.70;;;;;;5005291;28;20070;-91
2021/06/04 15:33:04;;;;;;;7.93;2.30;;;24.50;99.90;;;;;;5005417;28;20137;-92
2021/06/04 15:35:32;;;;;;;4.47;2.10;;;24.50;99.90;;;;;;5005656;28;20198;-91
2021/06/04 15:38:01;;;;;;;6.00;2.20;;;24.60;99.90;;;;;;5006095;28;20081;-91
2021/06/04 15:40:28;;;;;;;5.18;2.30;;;24.70;99.90;;;;;;5005219;28;20073;-91
2021/06/04 15:42:54;;;;;;;5.57;2.20;;;24.60;99.90;;;;;;5005480;28;20069;-91
2021/06/04 15:45:24;;;;;;;7.88;2.65;;;24.50;99.90;;;;;;5005807;28;20046;-90
2021/06/04 15:47:51;;;;;;;8.45;2.28;;;24.70;99.90;;;;;;5005080;28;20133;-91
2021/06/04 15:50:18;;;;;;;5.72;2.22;;;24.80;99.90;;;;;;5004364;28;20054;-92
2021/06/04 15:52:44;;;;;;;7.55;2.53;;;24.40;99.90;;;;;;5005022;28;20056;-90
2021/06/04 15:55:14;;;;;;;5.35;2.22;;;24.30;99.90;;;;;;5003997;28;20059;-91
2021/06/04 15:57:41;;;;;;;4.40;2.28;;;24.40;99.90;;;;;;4998318;28;20053;-90
2021/06/04 16:00:12;;;;;;;6.03;2.50;;;24.30;99.90;;;;;;5003814;28;20103;-92
2021/06/04 16:02:39;;;;;;;4.45;2.30;;;24.10;99.90;;;;;;5002347;28;20498;-91
2021/06/04 16:05:09;;;;;;;5.47;2.38;;;24.10;99.90;;;;;;5002354;28;20492;-91
2021/06/04 16:07:35;;;;;;;7.30;2.75;;;24.20;99.90;;;;;;5003994;28;20050;-90
2021/06/04 16:10:02;;;;;;;6.30;2.50;;;23.90;99.90;;;;;;5002693;28;20703;-93
2021/06/04 16:12:30;;;;;;;5.40;2.30;;;23.80;99.90;;;;;;5005910;28;20045;-92
2021/06/04 16:14:56;;;;;;;6.47;2.35;;;23.90;99.90;;;;;;5005070;28;20538;-92
2021/06/04 16:17:22;;;;;;;6.13;2.28;;;23.70;99.90;;;;;;5006634;28;20046;-92
2021/06/04 16:19:49;;;;;;;5.13;2.17;;;23.70;99.90;;;;;;5005749;28;20116;-92
2021/06/04 16:22:16;;;;;;;5.72;2.42;;;23.90;99.90;;;;;;5004542;28;20053;-91
2021/06/04 16:24:45;;;;;;;5.88;2.28;;;24.20;99.90;;;;;;5002618;28;20049;-91
2021/06/04 16:27:13;;;;;;;5.05;2.53;;;24.40;99.90;;;;;;4995227;28;20057;-93
2021/06/04 16:29:41;;;;;;;4.43;2.22;;;24.60;99.90;;;;;;4997167;28;20100;-91
2021/06/04 16:32:10;;;;;;;7.15;2.88;;;24.50;99.90;;;;;;4996535;28;20054;-92
2021/06/04 16:34:38;;;;;;;5.25;2.10;;;24.70;99.90;;;;;;4999551;28;20060;-92
2021/06/04 16:37:07;;;;;;;5.93;3.03;;;24.60;99.90;;;;;;4999183;28;20063;-90
2021/06/04 16:39:34;;;;;;;6.65;2.58;;;24.70;99.90;;;;;;4996562;28;20237;-91
2021/06/04 16:42:00;;;;;;;4.68;2.60;;;24.60;99.90;;;;;;4995486;28;20138;-91
2021/06/04 16:44:27;;;;;;;6.85;3.45;;;24.60;99.90;;;;;;4997152;28;20125;-91
2021/06/04 16:46:55;;;;;;;6.03;2.63;;;24.70;99.90;;;;;;4998906;28;20537;-91
2021/06/04 16:49:22;;;;;;;6.03;2.60;;;24.60;99.90;;;;;;4989733;28;20525;-91
2021/06/04 16:51:49;;;;;;;5.65;2.30;;;24.70;99.90;;;;;;4993788;28;20463;-90
2021/06/04 16:54:15;;;;;;;6.53;2.33;;;24.80;99.90;;;;;;4996984;28;20608;-92
2021/06/04 16:56:42;;;;;;;5.38;2.42;;;24.90;99.90;;;;;;4997343;28;20060;-91
2021/06/04 16:59:09;;;;;;;8.15;2.55;;;25.00;99.90;;;;;;5000731;28;20058;-93
2021/06/04 17:01:36;;;;;;;6.93;2.40;;;25.00;99.90;;;;;;4995983;28;20594;-94
2021/06/04 17:04:04;;;;;;;8.20;2.60;;;24.90;99.90;;;;;;4994955;28;20053;-90
2021/06/04 17:06:30;;;;;;;7.20;2.70;;;25.00;99.90;;;;;;4997359;28;20081;-89
2021/06/04 17:08:57;;;;;;;10.27;3.40;;;25.00;99.90;;;;;;5001216;28;20322;-90
2021/06/04 17:11:23;;;;;;;4.82;2.17;;;25.10;99.90;;;;;;5001909;28;20124;-92
2021/06/04 17:13:50;;;;;;;8.43;2.40;;;25.10;99.90;;;;;;5000915;28;20056;-89
2021/06/04 17:16:17;;;;;;;6.75;2.50;;;24.90;99.90;;;;;;5000029;28;20303;-91
2021/06/04 17:18:43;;;;;;;7.25;2.50;;;25.00;99.90;;;;;;4996794;28;20137;-92
2021/06/04 17:21:13;;;;;;;8.73;3.28;;;25.10;99.90;;;;;;4993737;28;20053;-91
2021/06/04 17:23:40;;;;;;;8.52;4.80;;;25.00;99.90;;;;;;4992560;28;20054;-89
2021/06/04 17:26:07;;;;;;;10.77;3.28;;;24.80;99.90;;;;;;4992377;28;20128;-91
2021/06/04 17:28:34;;;;;;;4.80;2.97;;;24.90;99.90;;;;;;4990996;28;20430;-90
2021/06/04 17:31:03;;;;;;;8.68;2.90;;;24.80;99.90;;;;;;4990013;28;20052;-90
2021/06/04 17:33:29;;;;;;;5.85;2.60;;;24.70;99.90;;;;;;5004269;28;20050;-90
2021/06/04 17:35:56;;;;;;;6.53;3.17;;;24.70;99.90;;;;;;5001942;28;20046;-92
2021/06/04 17:38:25;;;;;;;8.23;3.47;;;24.60;99.90;;;;;;5004889;28;20529;-90
2021/06/04 17:40:53;;;;;;;10.20;4.20;;;24.50;99.90;;;;;;5004015;28;20380;-93
2021/06/04 17:43:20;;;;;;;7.68;2.97;;;24.50;99.90;;;;;;5000631;28;20048;-91
2021/06/04 17:45:49;;;;;;;9.27;5.50;;;24.40;99.90;;;;;;4999201;28;20058;-93
2021/06/04 17:48:16;;;;;;;10.32;4.90;;;24.40;99.90;;;;;;4996233;28;20050;-90
2021/06/04 17:50:44;;;;;;;8.93;3.95;;;24.30;99.90;;;;;;4999772;28;20056;-92
2021/06/04 17:53:11;;;;;;;6.13;3.13;;;24.20;99.90;;;;;;5001268;28;20087;-90
2021/06/04 17:55:43;;;;;;;6.43;3.47;;;24.10;99.90;;;;;;5001244;28;20046;-90
2021/06/04 17:58:10;;;;;;;7.18;3.38;;;24.10;99.90;;;;;;5001659;28;20053;-91
2021/06/04 18:00:37;;;;;;;5.88;3.35;;;24.10;99.90;;;;;;5007470;28;20120;-92
2021/06/04 18:03:04;;;;;;;7.47;3.13;;;24.10;99.90;;;;;;5011100;28;20068;-90
2021/06/04 18:05:36;;;;;;;6.03;3.25;;;24.00;99.90;;;;;;5011721;28;20140;-90
2021/06/04 18:08:05;;;;;;;6.28;3.10;;;23.80;99.90;;;;;;5009466;28;20156;-90
2021/06/04 18:10:31;;;;;;;5.43;2.97;;;23.60;99.90;;;;;;5009617;28;20062;-90
2021/06/04 18:12:59;;;;;;;9.50;3.97;;;23.70;99.90;;;;;;5006950;28;20088;-90
2021/06/04 18:15:31;;;;;;;10.55;5.40;;;23.60;99.90;;;;;;5007743;28;20072;-90
2021/06/04 18:17:58;;;;;;;10.15;5.25;;;23.70;99.90;;;;;;5007129;28;20056;-89
2021/06/04 18:20:25;;;;;;;8.73;5.03;;;23.60;99.90;;;;;;5008865;28;20068;-90
2021/06/04 18:22:51;;;;;;;9.70;5.10;;;23.60;99.90;;;;;;5008543;28;20141;-92
2021/06/04 18:25:19;;;;;;;7.32;4.30;;;23.60;99.90;;;;;;5009641;28;20434;-89
2021/06/04 18:27:46;;;;;;;9.45;3.75;;;23.60;99.90;;;;;;5007435;28;20450;-91
2021/06/04 18:30:18;;;;;;;9.20;4.18;;;23.60;99.90;;;;;;5006991;28;20054;-91
2021/06/04 18:32:44;;;;;;;7.68;4.65;;;23.50;99.90;;;;;;5004625;28;20045;-90
2021/06/04 18:35:13;;;;;;;10.35;4.38;;;23.60;99.90;;;;;;5007352;28;20113;-90
2021/06/04 18:37:40;;;;;;;8.48;3.60;;;23.70;99.90;;;;;;5003655;28;20311;-90
2021/06/04 18:40:12;;;;;;;8.50;4.20;;;23.70;99.90;;;;;;5005774;28;20499;-90
2021/06/04 18:42:39;;;;;;;12.85;5.82;;;23.60;99.90;;;;;;5003574;28;20073;-91
2021/06/04 18:45:08;;;;;;;16.02;4.38;;;23.60;99.90;;;;;;5006982;28;20081;-90
2021/06/04 18:47:36;;;;;;;9.20;4.07;;;23.50;99.90;;;;;;5006857;28;20133;-90
2021/06/04 18:50:03;;;;;;;7.38;3.40;;;23.60;99.90;;;;;;5010928;28;20050;-91
2021/06/04 18:52:30;;;;;;;11.27;3.28;;;23.50;99.90;;;;;;5009719;28;20116;-90
2021/06/04 18:54:56;;;;;;;8.65;3.58;;;23.60;99.90;;;;;;5008108;28;20120;-92
2021/06/04 18:57:23;;;;;;;8.57;3.78;;;23.60;99.90;;;;;;5009464;28;20058;-92
2021/06/04 18:59:50;;;;;;;12.00;3.88;;;23.50;99.90;;;;;;5008596;28;20057;-90
2021/06/04 19:02:16;;;;;;;8.35;3.83;;;23.40;99.90;;;;;;5009230;28;20133;-91
2021/06/04 19:04:44;;;;;;;9.50;3.55;;;23.20;99.90;;;;;;5009173;28;20046;-91
2021/06/04 19:07:11;;;;;;;5.82;3.05;;;23.20;99.90;;;;;;5008922;28;20103;-90
2021/06/04 19:09:37;;;;;;;6.28;3.22;;;23.10;99.90;;;;;;5005811;28;20070;-90
2021/06/04 19:12:05;;;;;;;5.53;3.53;;;23.10;99.90;;;;;;5006160;28;20049;-90
2021/06/04 19:14:33;;;;;;;7.65;3.40;;;22.70;99.90;;;;;;5006377;28;20128;-91
2021/06/04 19:17:00;;;;;;;6.95;3.47;;;22.60;99.90;;;;;;5007481;28;20056;-90
2021/06/04 19:19:26;;;;;;;9.15;3.63;;;22.60;99.90;;;;;;5006404;28;20081;-92
2021/06/04 19:21:54;;;;;;;6.65;3.85;;;22.80;99.90;;;;;;5004923;28;20116;-92
2021/06/04 19:24:21;;;;;;;8.63;3.83;;;22.70;99.90;;;;;;5001319;28;20077;-93
2021/06/04 19:26:48;;;;;;;8.30;3.58;;;22.60;99.90;;;;;;5006694;28;20465;-90
2021/06/04 19:29:14;;;;;;;8.00;3.55;;;22.60;99.90;;;;;;5006946;28;20129;-91
2021/06/04 19:31:41;;;;;;;6.68;3.75;;;22.70;99.90;;;;;;5002383;28;20061;-90
2021/06/04 19:34:08;;;;;;;9.75;4.55;;;22.60;99.90;;;;;;5007212;28;20053;-93
2021/06/04 19:36:34;;;;;;;10.73;4.70;;;22.60;99.90;;;;;;5007607;28;20061;-90
2021/06/04 19:39:07;;;;;;;9.30;3.90;;;22.30;99.90;;;;;;5007956;28;20049;-91
2021/06/04 19:41:38;;;;;;;9.25;4.40;;;22.30;99.90;;;;;;4999136;28;20056;-91
2021/06/04 19:44:07;;;;;;;7.38;4.32;;;22.10;99.90;;;;;;5007763;28;20050;-92
2021/06/04 19:46:35;;;;;;;9.18;3.72;;;21.90;99.90;;;;;;5009162;28;20058;-90
2021/06/04 19:49:01;;;;;;;5.95;3.50;;;21.70;99.90;;;;;;5007595;28;20049;-92
2021/06/04 19:51:30;;;;;;;6.88;4.32;;;21.60;99.90;;;;;;5007006;28;20081;-90
2021/06/04 19:53:57;;;;;;;7.80;4.32;;;21.50;99.90;;;;;;5006938;28;20056;-92
2021/06/04 19:56:26;;;;;;;8.50;3.88;;;21.50;99.90;;;;;;5007572;28;20084;-91
2021/06/04 19:58:53;;;;;;;8.15;4.18;;;21.60;99.90;;;;;;5007341;28;20080;-91
2021/06/04 20:01:22;;;;;;;8.15;4.05;;;21.60;99.90;;;;;;5012143;28;20056;-94
2021/06/04 20:03:50;;;;;;;10.48;4.57;;;21.40;99.90;;;;;;5008357;28;20046;-91
2021/06/04 20:06:17;;;;;;;6.50;4.05;;;21.30;99.90;;;;;;5006874;28;20061;-92
2021/06/04 20:08:43;;;;;;;8.70;4.32;;;21.30;99.90;;;;;;5007451;28;20459;-90
2021/06/04 20:11:12;;;;;;;7.13;4.22;;;21.30;99.90;;;;;;5007025;28;20137;-89
2021/06/04 20:13:41;;;;;;;10.27;4.80;;;21.30;99.90;;;;;;5008378;28;20061;-93
2021/06/04 20:16:08;;;;;;;7.00;3.80;;;21.30;99.90;;;;;;5011668;28;20054;-92
2021/06/04 20:18:35;;;;;;;7.47;4.43;;;21.20;99.90;;;;;;5009206;28;20057;-93
2021/06/04 20:21:03;;;;;;;14.50;4.18;;;21.20;99.90;;;;;;5007181;28;20054;-92
2021/06/04 20:23:31;;;;;;;10.75;4.25;;;21.20;99.90;;;;;;5007319;28;20057;-90
2021/06/04 20:25:58;;;;;;;9.05;4.22;;;21.20;99.90;;;;;;5014195;28;20065;-93
2021/06/04 20:28:28;;;;;;;12.00;4.30;;;21.10;99.90;;;;;;5015442;28;20074;-93
2021/06/04 20:30:57;;;;;;;10.65;4.38;;;21.30;99.90;;;;;;5015650;28;20061;-91
2021/06/04 20:33:25;;;;;;;9.38;4.45;;;21.20;99.90;;;;;;5016548;28;20057;-94
2021/06/04 20:35:53;;;;;;;8.50;4.55;;;21.20;99.90;;;;;;5015243;28;20053;-93
2021/06/04 20:38:20;;;;;;;8.45;4.15;;;21.10;99.90;;;;;;5013821;28;20081;-92
2021/06/04 20:40:48;;;;;;;7.93;4.70;;;21.10;99.90;;;;;;5015371;28;20077;-94
2021/06/04 20:43:17;;;;;;;9.23;4.50;;;21.10;99.90;;;;;;5018285;28;20433;-94
2021/06/04 20:45:48;;;;;;;9.43;4.40;;;21.10;99.90;;;;;;5021144;28;20061;-92
2021/06/04 20:48:18;;;;;;;8.63;4.55;;;21.00;99.90;;;;;;5018954;28;20053;-93
2021/06/04 20:50:52;;;;;;;10.82;4.95;;;20.90;99.90;;;;;;5015990;28;20243;-94
2021/06/04 20:53:24;;;;;;;10.65;5.13;;;21.00;99.90;;;;;;5014782;28;20033;-93
2021/06/04 21:30:48;;;;;;;;;;;;;;;;;;;;;
2021/06/04 21:53:10;;;;;;;11.73;6.55;;;20.20;99.90;;;;;;5003550;28;20153;-91
2021/06/04 22:01:48;;;;;;;13.07;6.75;;;20.30;99.90;;;;;;5019596;28;20121;-93
2021/06/04 22:04:32;;;;;;;10.80;6.03;;;20.40;99.90;;;;;;5021437;28;20049;-92
2021/06/04 22:07:39;;;;;;;8.68;5.82;;;20.50;99.90;;;;;;5021460;28;20057;-91
2021/06/04 22:10:09;;;;;;;9.50;6.20;;;20.40;99.90;;;;;;5015376;28;20050;-93
2021/06/04 22:12:35;;;;;;;12.50;7.13;;;20.40;99.90;;;;;;5020102;28;20058;-91
2021/06/04 22:15:02;;;;;;;13.52;7.45;;;20.40;99.90;;;;;;5020314;28;20492;-93
2021/06/04 22:17:29;;;;;;;10.00;7.15;;;20.30;99.90;;;;;;5017264;28;20058;-93
2021/06/04 22:19:55;;;;;;;10.20;6.47;;;20.20;99.90;;;;;;5017443;28;20481;-92
2021/06/04 22:22:22;;;;;;;9.63;6.43;;;20.20;99.90;;;;;;5016615;28;20054;-93
2021/06/04 22:27:40;;;;;;;11.25;6.55;;;20.40;99.90;;;;;;5023228;28;20057;-93
2021/06/04 22:30:09;;;;;;;11.45;6.95;;;20.30;99.90;;;;;;5019971;28;20124;-93
2021/06/04 22:32:37;;;;;;;11.00;7.30;;;20.20;99.90;;;;;;5020781;28;20050;-93
2021/06/04 22:35:06;;;;;;;10.60;6.78;;;20.10;99.90;;;;;;5025873;28;20045;-92
2021/06/04 22:37:33;;;;;;;10.15;6.28;;;19.90;99.90;;;;;;5023178;28;20049;-92
2021/06/04 22:40:00;;;;;;;9.82;6.63;;;19.90;99.90;;;;;;5018745;28;20080;-93
2021/06/04 22:42:27;;;;;;;8.90;6.30;;;19.90;99.90;;;;;;5026185;28;20080;-93
2021/06/04 22:44:56;;;;;;;11.60;6.63;;;20.00;99.90;;;;;;5028169;28;20077;-93
2021/06/04 22:47:23;;;;;;;9.10;6.43;;;20.00;99.90;;;;;;5030197;28;20469;-94
2021/06/04 22:49:52;;;;;;;10.73;6.28;;;20.10;99.90;;;;;;5024670;28;20054;-92
2021/06/04 22:52:19;;;;;;;10.98;6.50;;;20.00;99.90;;;;;;5023425;28;20383;-92
2021/06/04 22:54:47;;;;;;;12.70;6.88;;;20.00;99.90;;;;;;5021698;28;20100;-92
2021/06/04 22:57:17;;;;;;;11.73;6.25;;;20.00;99.90;;;;;;5020642;28;20077;-91
2021/06/04 22:59:44;;;;;;;8.38;5.82;;;20.10;99.90;;;;;;5012444;28;20111;-91
2021/06/04 23:02:12;;;;;;;9.32;5.97;;;20.00;99.90;;;;;;5011872;28;20553;-91
2021/06/04 23:04:38;;;;;;;10.57;6.10;;;20.00;99.90;;;;;;5013007;28;20132;-91
2021/06/04 23:07:05;;;;;;;9.30;5.88;;;19.90;99.90;;;;;;5012343;28;20061;-92
2021/06/04 23:09:32;;;;;;;8.88;5.47;;;19.90;99.90;;;;;;5011920;28;20411;-92
2021/06/04 23:11:59;;;;;;;11.50;6.25;;;19.90;99.90;;;;;;5012163;28;20133;-93